sensor_id;sensor_type;location;lat;lon;timestamp;P1;durP1;ratioP1;P2;durP2;ratioP2
9720;SDS011;4899;42.644;23.366;2022-12-18T00:00:44;4.70;;;4.20;;
9720;SDS011;4899;42.644;23.366;2022-12-18T00:03:12;4.57;;;4.17;;
9720;SDS011;4899;42.644;23.366;2022-12-18T00:05:45;4.33;;;3.93;;
9720;SDS011;4899;42.644;23.366;2022-12-18T00:08:12;5.00;;;4.50;;
9720;SDS011;4899;42.644;23.366;2022-12-18T00:10:37;4.43;;;4.10;;
9720;SDS011;4899;42.644;23.366;2022-12-18T00:13:03;5.20;;;4.70;;
9720;SDS011;4899;42.644;23.366;2022-12-18T00:15:28;4.80;;;4.40;;
9720;SDS011;4899;42.644;23.366;2022-12-18T00:17:54;5.40;;;4.90;;
9720;SDS011;4899;42.644;23.366;2022-12-18T00:20:19;5.40;;;4.97;;
9720;SDS011;4899;42.644;23.366;2022-12-18T00:22:50;5.97;;;5.37;;
9720;SDS011;4899;42.644;23.366;2022-12-18T00:25:19;4.77;;;4.37;;
9720;SDS011;4899;42.644;23.366;2022-12-18T00:27:44;5.67;;;5.17;;
9720;SDS011;4899;42.644;23.366;2022-12-18T00:30:10;5.87;;;5.37;;
9720;SDS011;4899;42.644;23.366;2022-12-18T00:32:35;6.00;;;5.50;;
9720;SDS011;4899;42.644;23.366;2022-12-18T00:35:02;6.13;;;5.53;;
9720;SDS011;4899;42.644;23.366;2022-12-18T00:37:28;6.50;;;5.83;;
9720;SDS011;4899;42.644;23.366;2022-12-18T00:39:53;6.10;;;5.57;;
9720;SDS011;4899;42.644;23.366;2022-12-18T00:42:19;5.70;;;5.20;;
9720;SDS011;4899;42.644;23.366;2022-12-18T00:45:03;6.07;;;5.47;;
9720;SDS011;4899;42.644;23.366;2022-12-18T00:47:29;5.30;;;4.80;;
9720;SDS011;4899;42.644;23.366;2022-12-18T00:49:54;6.37;;;5.77;;
9720;SDS011;4899;42.644;23.366;2022-12-18T00:52:19;6.73;;;6.10;;
9720;SDS011;4899;42.644;23.366;2022-12-18T00:54:45;7.30;;;6.60;;
9720;SDS011;4899;42.644;23.366;2022-12-18T00:57:10;7.30;;;6.60;;
9720;SDS011;4899;42.644;23.366;2022-12-18T00:59:36;6.70;;;6.07;;
9720;SDS011;4899;42.644;23.366;2022-12-18T01:02:01;7.57;;;6.77;;
9720;SDS011;4899;42.644;23.366;2022-12-18T01:04:27;7.20;;;6.53;;
9720;SDS011;4899;42.644;23.366;2022-12-18T01:06:52;7.80;;;7.10;;
9720;SDS011;4899;42.644;23.366;2022-12-18T01:09:17;8.00;;;7.20;;
9720;SDS011;4899;42.644;23.366;2022-12-18T01:11:43;8.83;;;7.50;;
9720;SDS011;4899;42.644;23.366;2022-12-18T01:14:08;9.80;;;7.47;;
9720;SDS011;4899;42.644;23.366;2022-12-18T01:16:34;8.33;;;7.50;;
9720;SDS011;4899;42.644;23.366;2022-12-18T01:19:00;8.67;;;7.87;;
9720;SDS011;4899;42.644;23.366;2022-12-18T01:21:25;8.90;;;8.00;;
9720;SDS011;4899;42.644;23.366;2022-12-18T01:23:51;8.87;;;7.97;;
9720;SDS011;4899;42.644;23.366;2022-12-18T01:26:18;8.63;;;7.77;;
9720;SDS011;4899;42.644;23.366;2022-12-18T01:28:44;8.90;;;8.00;;
9720;SDS011;4899;42.644;23.366;2022-12-18T01:31:10;7.57;;;6.87;;
9720;SDS011;4899;42.644;23.366;2022-12-18T01:33:36;7.90;;;7.10;;
9720;SDS011;4899;42.644;23.366;2022-12-18T01:36:01;7.57;;;6.47;;
9720;SDS011;4899;42.644;23.366;2022-12-18T01:38:28;7.30;;;6.53;;
9720;SDS011;4899;42.644;23.366;2022-12-18T01:41:00;7.40;;;6.70;;
9720;SDS011;4899;42.644;23.366;2022-12-18T01:43:45;8.73;;;7.83;;
9720;SDS011;4899;42.644;23.366;2022-12-18T01:46:13;7.93;;;7.03;;
9720;SDS011;4899;42.644;23.366;2022-12-18T01:48:39;7.73;;;6.90;;
9720;SDS011;4899;42.644;23.366;2022-12-18T01:51:06;7.80;;;7.03;;
9720;SDS011;4899;42.644;23.366;2022-12-18T01:53:34;7.93;;;7.20;;
9720;SDS011;4899;42.644;23.366;2022-12-18T01:56:02;8.47;;;7.23;;
9720;SDS011;4899;42.644;23.366;2022-12-18T01:58:39;7.70;;;6.90;;
9720;SDS011;4899;42.644;23.366;2022-12-18T02:01:20;8.43;;;6.93;;
9720;SDS011;4899;42.644;23.366;2022-12-18T02:03:49;6.93;;;6.30;;
9720;SDS011;4899;42.644;23.366;2022-12-18T02:14:09;8.20;;;7.40;;
9720;SDS011;4899;42.644;23.366;2022-12-18T02:19:11;8.33;;;7.53;;
9720;SDS011;4899;42.644;23.366;2022-12-18T02:27:24;8.70;;;7.80;;
9720;SDS011;4899;42.644;23.366;2022-12-18T02:29:51;8.30;;;7.37;;
9720;SDS011;4899;42.644;23.366;2022-12-18T02:32:22;8.53;;;7.63;;
9720;SDS011;4899;42.644;23.366;2022-12-18T02:34:52;9.03;;;7.90;;
9720;SDS011;4899;42.644;23.366;2022-12-18T02:37:21;9.13;;;8.20;;
9720;SDS011;4899;42.644;23.366;2022-12-18T02:39:49;8.70;;;7.80;;
9720;SDS011;4899;42.644;23.366;2022-12-18T02:42:19;8.73;;;7.83;;
9720;SDS011;4899;42.644;23.366;2022-12-18T02:44:45;9.30;;;8.40;;
9720;SDS011;4899;42.644;23.366;2022-12-18T02:47:12;7.80;;;7.00;;
9720;SDS011;4899;42.644;23.366;2022-12-18T03:00:23;9.37;;;8.47;;
9720;SDS011;4899;42.644;23.366;2022-12-18T03:02:57;9.33;;;8.30;;
9720;SDS011;4899;42.644;23.366;2022-12-18T03:05:38;8.13;;;7.30;;
9720;SDS011;4899;42.644;23.366;2022-12-18T03:08:23;8.60;;;7.30;;
9720;SDS011;4899;42.644;23.366;2022-12-18T03:11:00;8.03;;;7.27;;
9720;SDS011;4899;42.644;23.366;2022-12-18T03:13:31;7.90;;;7.10;;
9720;SDS011;4899;42.644;23.366;2022-12-18T03:16:05;9.33;;;7.93;;
9720;SDS011;4899;42.644;23.366;2022-12-18T03:21:03;8.77;;;7.63;;
9720;SDS011;4899;42.644;23.366;2022-12-18T03:23:33;9.53;;;8.47;;
9720;SDS011;4899;42.644;23.366;2022-12-18T03:26:07;8.57;;;7.77;;
9720;SDS011;4899;42.644;23.366;2022-12-18T03:28:42;8.97;;;7.87;;
9720;SDS011;4899;42.644;23.366;2022-12-18T03:31:12;9.63;;;8.20;;
9720;SDS011;4899;42.644;23.366;2022-12-18T03:33:41;8.03;;;7.23;;
9720;SDS011;4899;42.644;23.366;2022-12-18T03:36:12;8.03;;;7.23;;
9720;SDS011;4899;42.644;23.366;2022-12-18T03:38:37;8.30;;;6.90;;
9720;SDS011;4899;42.644;23.366;2022-12-18T03:41:06;8.80;;;7.60;;
9720;SDS011;4899;42.644;23.366;2022-12-18T03:46:15;7.17;;;6.47;;
9720;SDS011;4899;42.644;23.366;2022-12-18T03:48:55;7.70;;;5.77;;
9720;SDS011;4899;42.644;23.366;2022-12-18T03:51:50;7.03;;;6.27;;
9720;SDS011;4899;42.644;23.366;2022-12-18T03:54:21;8.90;;;7.27;;
9720;SDS011;4899;42.644;23.366;2022-12-18T03:56:49;10.07;;;6.93;;
9720;SDS011;4899;42.644;23.366;2022-12-18T03:59:19;7.27;;;6.40;;
9720;SDS011;4899;42.644;23.366;2022-12-18T04:01:47;7.87;;;6.80;;
9720;SDS011;4899;42.644;23.366;2022-12-18T04:04:16;8.53;;;7.10;;
9720;SDS011;4899;42.644;23.366;2022-12-18T04:06:43;8.20;;;6.97;;
9720;SDS011;4899;42.644;23.366;2022-12-18T04:09:11;8.37;;;7.27;;
9720;SDS011;4899;42.644;23.366;2022-12-18T04:11:37;6.97;;;6.27;;
9720;SDS011;4899;42.644;23.366;2022-12-18T04:14:02;8.03;;;6.87;;
9720;SDS011;4899;42.644;23.366;2022-12-18T04:16:28;8.40;;;7.37;;
9720;SDS011;4899;42.644;23.366;2022-12-18T04:18:54;6.37;;;5.77;;
9720;SDS011;4899;42.644;23.366;2022-12-18T04:21:19;6.37;;;5.77;;
9720;SDS011;4899;42.644;23.366;2022-12-18T04:23:45;7.90;;;7.10;;
9720;SDS011;4899;42.644;23.366;2022-12-18T04:26:10;8.17;;;7.17;;
9720;SDS011;4899;42.644;23.366;2022-12-18T04:28:36;8.70;;;7.10;;
9720;SDS011;4899;42.644;23.366;2022-12-18T04:31:01;8.03;;;7.20;;
9720;SDS011;4899;42.644;23.366;2022-12-18T04:33:27;7.90;;;6.80;;
9720;SDS011;4899;42.644;23.366;2022-12-18T04:35:53;7.57;;;6.77;;
9720;SDS011;4899;42.644;23.366;2022-12-18T04:38:18;8.30;;;7.00;;
9720;SDS011;4899;42.644;23.366;2022-12-18T04:40:44;8.53;;;7.13;;
9720;SDS011;4899;42.644;23.366;2022-12-18T04:43:09;6.67;;;6.00;;
9720;SDS011;4899;42.644;23.366;2022-12-18T04:45:34;7.60;;;6.90;;
9720;SDS011;4899;42.644;23.366;2022-12-18T04:48:00;8.03;;;7.23;;
9720;SDS011;4899;42.644;23.366;2022-12-18T04:50:28;9.43;;;7.80;;
9720;SDS011;4899;42.644;23.366;2022-12-18T04:52:55;8.70;;;7.73;;
9720;SDS011;4899;42.644;23.366;2022-12-18T04:55:20;9.97;;;7.87;;
9720;SDS011;4899;42.644;23.366;2022-12-18T04:57:46;8.87;;;7.23;;
9720;SDS011;4899;42.644;23.366;2022-12-18T05:00:12;9.63;;;7.83;;
9720;SDS011;4899;42.644;23.366;2022-12-18T05:02:37;9.97;;;8.30;;
9720;SDS011;4899;42.644;23.366;2022-12-18T05:05:03;10.17;;;8.13;;
9720;SDS011;4899;42.644;23.366;2022-12-18T05:07:29;8.77;;;7.50;;
9720;SDS011;4899;42.644;23.366;2022-12-18T05:09:54;10.87;;;8.47;;
9720;SDS011;4899;42.644;23.366;2022-12-18T05:12:20;10.00;;;8.90;;
9720;SDS011;4899;42.644;23.366;2022-12-18T05:14:45;9.20;;;7.67;;
9720;SDS011;4899;42.644;23.366;2022-12-18T05:17:10;9.93;;;8.60;;
9720;SDS011;4899;42.644;23.366;2022-12-18T05:19:36;9.40;;;8.40;;
9720;SDS011;4899;42.644;23.366;2022-12-18T05:22:03;9.00;;;7.80;;
9720;SDS011;4899;42.644;23.366;2022-12-18T05:24:28;9.67;;;7.80;;
9720;SDS011;4899;42.644;23.366;2022-12-18T05:26:53;11.10;;;8.53;;
9720;SDS011;4899;42.644;23.366;2022-12-18T05:29:19;10.73;;;9.00;;
9720;SDS011;4899;42.644;23.366;2022-12-18T05:31:44;10.23;;;8.73;;
9720;SDS011;4899;42.644;23.366;2022-12-18T05:34:10;10.57;;;8.77;;
9720;SDS011;4899;42.644;23.366;2022-12-18T05:36:35;10.00;;;8.07;;
9720;SDS011;4899;42.644;23.366;2022-12-18T05:39:00;11.23;;;9.03;;
9720;SDS011;4899;42.644;23.366;2022-12-18T05:41:26;11.00;;;8.30;;
9720;SDS011;4899;42.644;23.366;2022-12-18T05:43:52;10.33;;;8.70;;
9720;SDS011;4899;42.644;23.366;2022-12-18T05:46:18;10.00;;;8.07;;
9720;SDS011;4899;42.644;23.366;2022-12-18T05:48:43;9.00;;;8.07;;
9720;SDS011;4899;42.644;23.366;2022-12-18T05:51:10;11.00;;;8.30;;
9720;SDS011;4899;42.644;23.366;2022-12-18T05:53:40;9.30;;;7.80;;
9720;SDS011;4899;42.644;23.366;2022-12-18T05:56:08;12.77;;;9.03;;
9720;SDS011;4899;42.644;23.366;2022-12-18T05:58:37;11.13;;;9.40;;
9720;SDS011;4899;42.644;23.366;2022-12-18T06:01:11;11.17;;;9.00;;
9720;SDS011;4899;42.644;23.366;2022-12-18T06:03:38;11.53;;;9.27;;
9720;SDS011;4899;42.644;23.366;2022-12-18T06:06:04;12.17;;;9.43;;
9720;SDS011;4899;42.644;23.366;2022-12-18T06:08:41;10.97;;;9.03;;
9720;SDS011;4899;42.644;23.366;2022-12-18T06:11:06;10.37;;;9.10;;
9720;SDS011;4899;42.644;23.366;2022-12-18T06:13:32;12.97;;;10.07;;
9720;SDS011;4899;42.644;23.366;2022-12-18T06:15:57;10.97;;;8.83;;
9720;SDS011;4899;42.644;23.366;2022-12-18T06:18:22;11.67;;;9.53;;
9720;SDS011;4899;42.644;23.366;2022-12-18T06:20:57;11.80;;;10.00;;
9720;SDS011;4899;42.644;23.366;2022-12-18T06:23:23;12.67;;;10.17;;
9720;SDS011;4899;42.644;23.366;2022-12-18T06:25:49;11.30;;;9.63;;
9720;SDS011;4899;42.644;23.366;2022-12-18T06:28:14;10.20;;;8.73;;
9720;SDS011;4899;42.644;23.366;2022-12-18T06:30:42;14.23;;;9.53;;
9720;SDS011;4899;42.644;23.366;2022-12-18T06:33:08;13.37;;;10.63;;
9720;SDS011;4899;42.644;23.366;2022-12-18T06:35:34;13.67;;;10.93;;
9720;SDS011;4899;42.644;23.366;2022-12-18T06:38:00;13.47;;;11.10;;
9720;SDS011;4899;42.644;23.366;2022-12-18T06:40:26;13.27;;;11.43;;
9720;SDS011;4899;42.644;23.366;2022-12-18T06:42:51;13.60;;;10.97;;
9720;SDS011;4899;42.644;23.366;2022-12-18T06:45:17;12.63;;;11.20;;
9720;SDS011;4899;42.644;23.366;2022-12-18T06:47:42;11.87;;;9.33;;
9720;SDS011;4899;42.644;23.366;2022-12-18T06:50:08;12.50;;;10.57;;
9720;SDS011;4899;42.644;23.366;2022-12-18T06:52:33;13.87;;;9.97;;
9720;SDS011;4899;42.644;23.366;2022-12-18T06:54:59;10.07;;;8.03;;
9720;SDS011;4899;42.644;23.366;2022-12-18T06:57:24;12.33;;;10.63;;
9720;SDS011;4899;42.644;23.366;2022-12-18T06:59:50;12.40;;;11.10;;
9720;SDS011;4899;42.644;23.366;2022-12-18T07:02:15;10.90;;;9.77;;
9720;SDS011;4899;42.644;23.366;2022-12-18T07:04:41;11.40;;;9.63;;
9720;SDS011;4899;42.644;23.366;2022-12-18T07:07:06;12.07;;;10.53;;
9720;SDS011;4899;42.644;23.366;2022-12-18T07:09:32;12.97;;;11.70;;
9720;SDS011;4899;42.644;23.366;2022-12-18T07:11:57;13.57;;;11.03;;
9720;SDS011;4899;42.644;23.366;2022-12-18T07:14:23;12.47;;;10.40;;
9720;SDS011;4899;42.644;23.366;2022-12-18T07:16:48;10.37;;;8.63;;
9720;SDS011;4899;42.644;23.366;2022-12-18T07:19:13;11.17;;;9.70;;
9720;SDS011;4899;42.644;23.366;2022-12-18T07:21:39;13.13;;;11.07;;
9720;SDS011;4899;42.644;23.366;2022-12-18T07:24:04;11.37;;;9.20;;
9720;SDS011;4899;42.644;23.366;2022-12-18T07:26:30;12.60;;;11.00;;
9720;SDS011;4899;42.644;23.366;2022-12-18T07:28:56;11.93;;;9.33;;
9720;SDS011;4899;42.644;23.366;2022-12-18T07:31:22;13.10;;;10.30;;
9720;SDS011;4899;42.644;23.366;2022-12-18T07:33:49;12.50;;;10.73;;
9720;SDS011;4899;42.644;23.366;2022-12-18T07:36:15;12.40;;;10.10;;
9720;SDS011;4899;42.644;23.366;2022-12-18T07:38:41;12.60;;;10.30;;
9720;SDS011;4899;42.644;23.366;2022-12-18T07:41:10;12.87;;;10.80;;
9720;SDS011;4899;42.644;23.366;2022-12-18T07:43:37;11.80;;;10.30;;
9720;SDS011;4899;42.644;23.366;2022-12-18T07:46:03;11.23;;;10.03;;
9720;SDS011;4899;42.644;23.366;2022-12-18T07:48:30;13.60;;;11.53;;
9720;SDS011;4899;42.644;23.366;2022-12-18T07:51:04;12.03;;;10.77;;
9720;SDS011;4899;42.644;23.366;2022-12-18T07:53:31;15.63;;;9.83;;
9720;SDS011;4899;42.644;23.366;2022-12-18T07:55:59;13.90;;;10.80;;
9720;SDS011;4899;42.644;23.366;2022-12-18T07:58:25;14.20;;;12.67;;
9720;SDS011;4899;42.644;23.366;2022-12-18T08:00:51;12.70;;;10.57;;
9720;SDS011;4899;42.644;23.366;2022-12-18T08:03:17;14.33;;;11.77;;
9720;SDS011;4899;42.644;23.366;2022-12-18T08:05:43;13.67;;;11.97;;
9720;SDS011;4899;42.644;23.366;2022-12-18T08:08:08;13.37;;;10.30;;
9720;SDS011;4899;42.644;23.366;2022-12-18T08:10:34;13.93;;;12.43;;
9720;SDS011;4899;42.644;23.366;2022-12-18T08:12:59;13.73;;;11.93;;
9720;SDS011;4899;42.644;23.366;2022-12-18T08:15:24;14.57;;;11.37;;
9720;SDS011;4899;42.644;23.366;2022-12-18T08:17:50;14.93;;;11.90;;
9720;SDS011;4899;42.644;23.366;2022-12-18T08:20:34;17.87;;;15.50;;
9720;SDS011;4899;42.644;23.366;2022-12-18T08:22:59;16.30;;;13.37;;
9720;SDS011;4899;42.644;23.366;2022-12-18T08:25:25;15.77;;;14.03;;
9720;SDS011;4899;42.644;23.366;2022-12-18T08:27:50;16.23;;;13.10;;
9720;SDS011;4899;42.644;23.366;2022-12-18T08:30:15;15.10;;;12.07;;
9720;SDS011;4899;42.644;23.366;2022-12-18T08:32:41;14.43;;;12.73;;
9720;SDS011;4899;42.644;23.366;2022-12-18T08:35:06;17.70;;;14.13;;
9720;SDS011;4899;42.644;23.366;2022-12-18T08:37:33;14.17;;;11.97;;
9720;SDS011;4899;42.644;23.366;2022-12-18T08:39:59;14.97;;;13.37;;
9720;SDS011;4899;42.644;23.366;2022-12-18T08:42:25;17.93;;;13.90;;
9720;SDS011;4899;42.644;23.366;2022-12-18T08:45:09;16.07;;;12.33;;
9720;SDS011;4899;42.644;23.366;2022-12-18T08:47:34;16.50;;;14.27;;
9720;SDS011;4899;42.644;23.366;2022-12-18T08:50:00;17.33;;;13.97;;
9720;SDS011;4899;42.644;23.366;2022-12-18T08:52:25;14.90;;;11.93;;
9720;SDS011;4899;42.644;23.366;2022-12-18T08:54:50;17.03;;;14.00;;
9720;SDS011;4899;42.644;23.366;2022-12-18T08:57:16;16.97;;;13.70;;
9720;SDS011;4899;42.644;23.366;2022-12-18T08:59:41;16.97;;;13.93;;
9720;SDS011;4899;42.644;23.366;2022-12-18T09:02:08;17.77;;;14.03;;
9720;SDS011;4899;42.644;23.366;2022-12-18T09:04:36;17.00;;;13.83;;
9720;SDS011;4899;42.644;23.366;2022-12-18T09:07:02;17.20;;;13.57;;
9720;SDS011;4899;42.644;23.366;2022-12-18T09:09:27;16.57;;;12.10;;
9720;SDS011;4899;42.644;23.366;2022-12-18T09:11:53;15.03;;;12.07;;
9720;SDS011;4899;42.644;23.366;2022-12-18T09:14:18;15.30;;;12.87;;
9720;SDS011;4899;42.644;23.366;2022-12-18T09:16:43;17.30;;;13.03;;
9720;SDS011;4899;42.644;23.366;2022-12-18T09:19:09;16.83;;;14.33;;
9720;SDS011;4899;42.644;23.366;2022-12-18T09:21:35;17.83;;;14.07;;
9720;SDS011;4899;42.644;23.366;2022-12-18T09:24:00;18.60;;;15.10;;
9720;SDS011;4899;42.644;23.366;2022-12-18T09:26:26;17.00;;;13.50;;
9720;SDS011;4899;42.644;23.366;2022-12-18T09:28:52;14.67;;;13.17;;
9720;SDS011;4899;42.644;23.366;2022-12-18T09:31:19;17.73;;;14.23;;
9720;SDS011;4899;42.644;23.366;2022-12-18T09:33:46;16.07;;;11.87;;
9720;SDS011;4899;42.644;23.366;2022-12-18T09:36:14;15.57;;;12.60;;
9720;SDS011;4899;42.644;23.366;2022-12-18T09:38:41;16.90;;;12.70;;
9720;SDS011;4899;42.644;23.366;2022-12-18T09:44:10;15.87;;;11.80;;
9720;SDS011;4899;42.644;23.366;2022-12-18T09:46:37;14.47;;;11.83;;
9720;SDS011;4899;42.644;23.366;2022-12-18T09:49:11;14.83;;;10.83;;
9720;SDS011;4899;42.644;23.366;2022-12-18T09:51:41;15.87;;;11.80;;
9720;SDS011;4899;42.644;23.366;2022-12-18T09:54:12;13.33;;;11.53;;
9720;SDS011;4899;42.644;23.366;2022-12-18T09:56:43;14.30;;;11.80;;
9720;SDS011;4899;42.644;23.366;2022-12-18T09:59:29;16.37;;;12.00;;
9720;SDS011;4899;42.644;23.366;2022-12-18T10:01:59;16.13;;;12.40;;
9720;SDS011;4899;42.644;23.366;2022-12-18T10:04:24;14.40;;;11.47;;
9720;SDS011;4899;42.644;23.366;2022-12-18T10:06:57;15.03;;;12.33;;
9720;SDS011;4899;42.644;23.366;2022-12-18T10:09:38;18.23;;;12.87;;
9720;SDS011;4899;42.644;23.366;2022-12-18T10:12:34;15.03;;;12.60;;
9720;SDS011;4899;42.644;23.366;2022-12-18T10:20:34;15.57;;;13.50;;
9720;SDS011;4899;42.644;23.366;2022-12-18T10:23:12;14.97;;;12.47;;
9720;SDS011;4899;42.644;23.366;2022-12-18T10:28:32;14.30;;;10.93;;
9720;SDS011;4899;42.644;23.366;2022-12-18T10:31:00;14.30;;;11.90;;
9720;SDS011;4899;42.644;23.366;2022-12-18T10:33:44;14.30;;;12.33;;
9720;SDS011;4899;42.644;23.366;2022-12-18T10:36:10;16.73;;;12.17;;
9720;SDS011;4899;42.644;23.366;2022-12-18T10:38:35;14.30;;;11.67;;
9720;SDS011;4899;42.644;23.366;2022-12-18T10:41:02;16.90;;;11.73;;
9720;SDS011;4899;42.644;23.366;2022-12-18T10:43:36;13.93;;;10.77;;
9720;SDS011;4899;42.644;23.366;2022-12-18T10:51:31;15.73;;;11.57;;
9720;SDS011;4899;42.644;23.366;2022-12-18T10:54:03;13.67;;;11.57;;
9720;SDS011;4899;42.644;23.366;2022-12-18T10:56:31;17.03;;;13.23;;
9720;SDS011;4899;42.644;23.366;2022-12-18T10:59:01;14.30;;;11.47;;
9720;SDS011;4899;42.644;23.366;2022-12-18T11:01:34;14.97;;;13.30;;
9720;SDS011;4899;42.644;23.366;2022-12-18T11:04:13;16.83;;;14.40;;
9720;SDS011;4899;42.644;23.366;2022-12-18T11:06:52;17.70;;;13.93;;
9720;SDS011;4899;42.644;23.366;2022-12-18T11:09:21;17.23;;;14.40;;
9720;SDS011;4899;42.644;23.366;2022-12-18T11:11:49;15.83;;;13.87;;
9720;SDS011;4899;42.644;23.366;2022-12-18T11:14:20;16.77;;;14.47;;
9720;SDS011;4899;42.644;23.366;2022-12-18T11:16:49;16.77;;;13.40;;
9720;SDS011;4899;42.644;23.366;2022-12-18T11:19:21;15.77;;;11.67;;
9720;SDS011;4899;42.644;23.366;2022-12-18T11:21:49;14.93;;;11.03;;
9720;SDS011;4899;42.644;23.366;2022-12-18T11:24:34;13.87;;;10.13;;
9720;SDS011;4899;42.644;23.366;2022-12-18T11:27:02;12.60;;;10.20;;
9720;SDS011;4899;42.644;23.366;2022-12-18T11:29:36;15.37;;;11.83;;
9720;SDS011;4899;42.644;23.366;2022-12-18T11:32:19;14.90;;;11.90;;
9720;SDS011;4899;42.644;23.366;2022-12-18T11:34:52;14.23;;;11.17;;
9720;SDS011;4899;42.644;23.366;2022-12-18T11:37:26;13.87;;;11.33;;
9720;SDS011;4899;42.644;23.366;2022-12-18T11:40:03;13.50;;;11.77;;
9720;SDS011;4899;42.644;23.366;2022-12-18T11:42:59;13.97;;;11.30;;
9720;SDS011;4899;42.644;23.366;2022-12-18T11:46:24;14.07;;;11.10;;
9720;SDS011;4899;42.644;23.366;2022-12-18T11:48:56;15.23;;;11.10;;
9720;SDS011;4899;42.644;23.366;2022-12-18T11:51:25;16.77;;;12.00;;
9720;SDS011;4899;42.644;23.366;2022-12-18T11:53:57;15.87;;;11.40;;
9720;SDS011;4899;42.644;23.366;2022-12-18T12:01:57;14.90;;;10.90;;
9720;SDS011;4899;42.644;23.366;2022-12-18T12:04:45;18.00;;;12.80;;
9720;SDS011;4899;42.644;23.366;2022-12-18T12:27:24;16.03;;;12.37;;
9720;SDS011;4899;42.644;23.366;2022-12-18T12:29:57;18.30;;;14.07;;
9720;SDS011;4899;42.644;23.366;2022-12-18T12:40:27;15.70;;;12.30;;
9720;SDS011;4899;42.644;23.366;2022-12-18T12:43:32;15.77;;;13.23;;
9720;SDS011;4899;42.644;23.366;2022-12-18T12:45:53;16.60;;;12.53;;
9720;SDS011;4899;42.644;23.366;2022-12-18T12:48:44;17.33;;;12.60;;
9720;SDS011;4899;42.644;23.366;2022-12-18T12:51:17;21.70;;;17.43;;
9720;SDS011;4899;42.644;23.366;2022-12-18T12:53:56;16.83;;;12.50;;
9720;SDS011;4899;42.644;23.366;2022-12-18T12:56:24;16.43;;;12.67;;
9720;SDS011;4899;42.644;23.366;2022-12-18T13:01:37;17.57;;;13.40;;
9720;SDS011;4899;42.644;23.366;2022-12-18T13:09:30;17.83;;;14.70;;
9720;SDS011;4899;42.644;23.366;2022-12-18T13:12:01;19.17;;;14.67;;
9720;SDS011;4899;42.644;23.366;2022-12-18T13:14:46;15.87;;;12.73;;
9720;SDS011;4899;42.644;23.366;2022-12-18T13:20:19;16.43;;;13.53;;
9720;SDS011;4899;42.644;23.366;2022-12-18T13:22:44;21.07;;;15.03;;
9720;SDS011;4899;42.644;23.366;2022-12-18T13:38:21;16.53;;;12.83;;
9720;SDS011;4899;42.644;23.366;2022-12-18T13:49:05;15.17;;;12.43;;
9720;SDS011;4899;42.644;23.366;2022-12-18T13:51:42;15.13;;;12.37;;
9720;SDS011;4899;42.644;23.366;2022-12-18T13:54:28;16.00;;;12.97;;
9720;SDS011;4899;42.644;23.366;2022-12-18T13:56:59;15.60;;;12.90;;
9720;SDS011;4899;42.644;23.366;2022-12-18T13:59:25;18.83;;;14.47;;
9720;SDS011;4899;42.644;23.366;2022-12-18T14:01:59;19.20;;;13.53;;
9720;SDS011;4899;42.644;23.366;2022-12-18T14:04:31;18.00;;;14.10;;
9720;SDS011;4899;42.644;23.366;2022-12-18T14:07:01;16.83;;;13.50;;
9720;SDS011;4899;42.644;23.366;2022-12-18T14:09:31;16.23;;;12.73;;
9720;SDS011;4899;42.644;23.366;2022-12-18T14:12:00;17.60;;;13.40;;
9720;SDS011;4899;42.644;23.366;2022-12-18T14:14:46;17.23;;;13.00;;
9720;SDS011;4899;42.644;23.366;2022-12-18T14:17:14;14.73;;;12.73;;
9720;SDS011;4899;42.644;23.366;2022-12-18T14:19:41;18.23;;;13.17;;
9720;SDS011;4899;42.644;23.366;2022-12-18T14:22:15;16.53;;;13.63;;
9720;SDS011;4899;42.644;23.366;2022-12-18T14:24:43;15.87;;;12.43;;
9720;SDS011;4899;42.644;23.366;2022-12-18T14:27:24;16.03;;;12.43;;
9720;SDS011;4899;42.644;23.366;2022-12-18T14:29:50;15.03;;;11.77;;
9720;SDS011;4899;42.644;23.366;2022-12-18T14:32:17;15.87;;;11.97;;
9720;SDS011;4899;42.644;23.366;2022-12-18T14:34:48;15.57;;;12.63;;
9720;SDS011;4899;42.644;23.366;2022-12-18T14:37:20;13.80;;;11.47;;
9720;SDS011;4899;42.644;23.366;2022-12-18T14:39:57;12.53;;;9.80;;
9720;SDS011;4899;42.644;23.366;2022-12-18T14:42:43;13.63;;;10.67;;
9720;SDS011;4899;42.644;23.366;2022-12-18T14:47:59;11.73;;;9.60;;
9720;SDS011;4899;42.644;23.366;2022-12-18T14:50:25;13.03;;;10.10;;
9720;SDS011;4899;42.644;23.366;2022-12-18T14:52:51;14.63;;;10.53;;
9720;SDS011;4899;42.644;23.366;2022-12-18T14:55:17;15.17;;;11.67;;
9720;SDS011;4899;42.644;23.366;2022-12-18T14:57:45;14.07;;;11.33;;
9720;SDS011;4899;42.644;23.366;2022-12-18T15:00:15;16.03;;;11.40;;
9720;SDS011;4899;42.644;23.366;2022-12-18T15:02:50;14.47;;;12.33;;
9720;SDS011;4899;42.644;23.366;2022-12-18T15:05:28;14.40;;;11.43;;
9720;SDS011;4899;42.644;23.366;2022-12-18T15:07:55;14.43;;;11.00;;
9720;SDS011;4899;42.644;23.366;2022-12-18T15:10:23;16.20;;;11.27;;
9720;SDS011;4899;42.644;23.366;2022-12-18T15:18:02;13.43;;;10.87;;
9720;SDS011;4899;42.644;23.366;2022-12-18T15:20:28;14.73;;;11.33;;
9720;SDS011;4899;42.644;23.366;2022-12-18T15:22:57;14.43;;;10.90;;
9720;SDS011;4899;42.644;23.366;2022-12-18T15:27:56;15.50;;;11.87;;
9720;SDS011;4899;42.644;23.366;2022-12-18T15:30:22;14.27;;;10.97;;
9720;SDS011;4899;42.644;23.366;2022-12-18T15:32:49;13.50;;;10.87;;
9720;SDS011;4899;42.644;23.366;2022-12-18T15:37:43;13.83;;;10.63;;
9720;SDS011;4899;42.644;23.366;2022-12-18T15:40:16;13.53;;;11.23;;
9720;SDS011;4899;42.644;23.366;2022-12-18T15:42:46;14.97;;;10.73;;
9720;SDS011;4899;42.644;23.366;2022-12-18T15:45:32;13.73;;;10.17;;
9720;SDS011;4899;42.644;23.366;2022-12-18T15:47:58;14.37;;;10.93;;
9720;SDS011;4899;42.644;23.366;2022-12-18T15:50:23;14.20;;;10.93;;
9720;SDS011;4899;42.644;23.366;2022-12-18T15:52:51;15.60;;;12.23;;
9720;SDS011;4899;42.644;23.366;2022-12-18T15:55:24;14.90;;;11.17;;
9720;SDS011;4899;42.644;23.366;2022-12-18T15:58:09;15.57;;;10.63;;
9720;SDS011;4899;42.644;23.366;2022-12-18T16:00:36;16.50;;;11.20;;
9720;SDS011;4899;42.644;23.366;2022-12-18T16:03:03;15.63;;;11.97;;
9720;SDS011;4899;42.644;23.366;2022-12-18T16:05:30;15.50;;;10.90;;
9720;SDS011;4899;42.644;23.366;2022-12-18T16:07:56;15.33;;;11.17;;
9720;SDS011;4899;42.644;23.366;2022-12-18T16:10:22;15.67;;;11.73;;
9720;SDS011;4899;42.644;23.366;2022-12-18T16:12:48;13.50;;;10.13;;
9720;SDS011;4899;42.644;23.366;2022-12-18T16:15:14;15.77;;;11.60;;
9720;SDS011;4899;42.644;23.366;2022-12-18T16:17:41;15.27;;;10.77;;
9720;SDS011;4899;42.644;23.366;2022-12-18T16:20:15;15.67;;;11.03;;
9720;SDS011;4899;42.644;23.366;2022-12-18T16:22:42;17.67;;;12.30;;
9720;SDS011;4899;42.644;23.366;2022-12-18T16:27:43;15.00;;;10.87;;
9720;SDS011;4899;42.644;23.366;2022-12-18T16:30:12;14.63;;;11.17;;
9720;SDS011;4899;42.644;23.366;2022-12-18T16:32:42;13.07;;;10.67;;
9720;SDS011;4899;42.644;23.366;2022-12-18T16:35:11;15.97;;;11.37;;
9720;SDS011;4899;42.644;23.366;2022-12-18T16:37:37;14.87;;;11.23;;
9720;SDS011;4899;42.644;23.366;2022-12-18T16:40:03;14.80;;;10.70;;
9720;SDS011;4899;42.644;23.366;2022-12-18T16:42:29;15.07;;;11.33;;
9720;SDS011;4899;42.644;23.366;2022-12-18T16:44:54;16.30;;;12.30;;
9720;SDS011;4899;42.644;23.366;2022-12-18T16:47:20;16.00;;;11.53;;
9720;SDS011;4899;42.644;23.366;2022-12-18T16:49:45;14.17;;;10.33;;
9720;SDS011;4899;42.644;23.366;2022-12-18T16:52:11;14.10;;;11.13;;
9720;SDS011;4899;42.644;23.366;2022-12-18T16:54:37;15.70;;;11.03;;
9720;SDS011;4899;42.644;23.366;2022-12-18T16:57:03;17.33;;;11.73;;
9720;SDS011;4899;42.644;23.366;2022-12-18T16:59:29;15.50;;;11.67;;
9720;SDS011;4899;42.644;23.366;2022-12-18T17:01:55;14.40;;;12.07;;
9720;SDS011;4899;42.644;23.366;2022-12-18T17:04:21;16.50;;;12.10;;
9720;SDS011;4899;42.644;23.366;2022-12-18T17:06:47;17.87;;;11.83;;